Terminal Aerodrome Forecast
Issued by NWS Greer, SC

Home | Current Version | Previous Version | Text Only | Print | Product List | Glossary On
Versions: 1 2 3 4 5 6 7 8 9 10 11 12 13 14 15 16 17
000
FTUS42 KGSP 230538
TAFAVL
TAF
KAVL 230538Z 2306/2406 17003KT 2SM -RA BR SCT005 BKN009
     FM230700 17006KT 5SM BR VCSH OVC006
     FM231000 33012G21KT 5SM BR SCT018
     FM231300 35015G23KT P6SM SCT018 OVC120
     FM231500 32018G25KT P6SM FEW250
     FM240000 34018G27KT P6SM OVC050=

USA.gov is the U.S. government's official web portal to all federal, state and local government web resources and services.